Bulutlu
Bulutlu
Bulutlu
Bulutlu
Bulutlu
Bulutlu ve hafif yağmurlu
Bulutlu ve hafif yağmurlu
(°C)
16°
16°
16°
16°
16°
16°
15°
15°
15°
15°
16°
16°
16°
16°
(°C)
15°
15°
15°
15°
15°
15°
15°
BKB
BKB
BKB
B
B
B
B
(km/h)
5-12
5-12
5-11
4-12
4-12
4-11
4-11
(mm)
0
0
0
0
0
0
0.1
(%)
4
5
5
6
7
25
25

Güneşin açısı

/ -35.3°
sun-icon
UV 8
05:42
19:49
Küçülen ay (216°)
23:21
08:09

San Diego (KSAN) için METAR

Zaman Koşullar Sıcaklık/
Çiy noktası
Rüzgar Görünürlük Hava Bulutlar Basınç Değiştir Ham
MVFR 16.1°C / 11.1°C variable 0kt >10km - Overcast 1900ft 1016 - KSAN 260751Z 00000KT 10SM OVC019 16/11 A3003 RMK AO2 SLP167 T01610111 401830139 $
MVFR 15.6°C / 11.1°C variable 0kt >10km - Overcast 2000ft 1017 - KSAN 260651Z 00000KT 10SM OVC020 16/11 A3003 RMK AO2 SLP170 T01560111 $
MVFR 15.6°C / 11.1°C 350º 3kt >10km - Overcast 2000ft 1017 - KSAN 260551Z 35003KT 10SM OVC020 16/11 A3004 RMK AO2 SLP172 T01560111 10172 20156 51008 $
MVFR 15.6°C / 10.6°C variable 0kt >10km - Overcast 2000ft 1017 - KSAN 260451Z 00000KT 10SM OVC020 16/11 A3004 RMK AO2 SLP171 T01560106 $
MVFR 15.6°C / 10.6°C 340º 4kt >10km - Overcast 2000ft 1016 - KSAN 260351Z 34004KT 10SM OVC020 16/11 A3002 RMK AO2 SLP166 T01560106 $
MVFR 16.1°C / 11.1°C variable 0kt >10km - Overcast 2000ft 1016 - KSAN 260251Z 00000KT 10SM OVC020 16/11 A3002 RMK AO2 SLP164 T01610111 55002 $
MVFR 16.7°C / 11.1°C 280º 7kt >10km - Overcast 2000ft 1016 - KSAN 260151Z 28007KT 10SM OVC020 17/11 A3001 RMK AO2 SLP163 T01670111 $
MVFR 16.7°C / 11.1°C 310º 3kt >10km - Broken Clouds 1900ft
Overcast 3100ft
1016 - KSAN 260051Z 31003KT 10SM BKN019 OVC031 17/11 A3001 RMK AO2 SLP163 T01670111 $
MVFR 16.7°C / 11.1°C 280º 8kt >10km - Broken Clouds 2100ft
Overcast 3000ft
1016 - KSAN 252351Z 28008KT 10SM BKN021 OVC030 17/11 A3002 RMK AO2 SLP166 T01670111 10183 20167 56010 $
MVFR 17.8°C / 11.1°C 250º variable 210º to 300º 8kt >10km - Broken Clouds 1900ft
Overcast 3100ft
1016 - KSAN 252251Z 25008KT 210V300 10SM BKN019 OVC031 18/11 A3003 RMK AO2 SLP169 T01780111 $
MVFR 17.2°C / 11.1°C 300º 7kt >10km - Broken Clouds 1900ft
Overcast 3100ft
- KSAN 252228Z 30007KT 10SM BKN019 OVC031 17/11 A3004 RMK AO2 T01720111 $
MVFR 17.8°C / 11.7°C 270º 10kt >10km - Scattered Clouds 2300ft
Overcast 3000ft
1017 - KSAN 252151Z 27010KT 10SM SCT023 OVC030 18/12 A3004 RMK AO2 SLP171 T01780117 $
MVFR 17.2°C / 11.7°C 260º 8kt >10km - Scattered Clouds 1400ft
Broken Clouds 3000ft
1017 - KSAN 252051Z 26008KT 10SM SCT014 BKN030 17/12 A3005 RMK AO2 SLP176 T01720117 58002 $
MVFR 17.2°C / 11.7°C 210º 9kt Gust 23kt >10km - Scattered Clouds 1400ft
Broken Clouds 3000ft
1017 - KSAN 251951Z 21009G23KT 10SM SCT014 BKN030 17/12 A3006 RMK AO2 SLP178 T01720117 $
MVFR 17.8°C / 11.7°C 270º 10kt Gust 22kt >10km - Broken Clouds 1400ft
Broken Clouds 3200ft
1017 - KSAN 251851Z 27010G22KT 10SM BKN014 BKN032 18/12 A3006 RMK AO2 SLP179 T01780117 $
MVFR 17.2°C / 11.7°C 230º variable 210º to 270º 8kt Gust 19kt >10km 0.13mm precipitation Broken Clouds 1400ft
Broken Clouds 3200ft
1017 - KSAN 251751Z 23008G19KT 210V270 10SM BKN014 BKN032 17/12 A3006 RMK AO2 RAE32 SLP177 P0000 60003 T01720117 10172 20139 51009 $
MVFR 16.1°C / 13.3°C 250º 8kt 9700m Rain Mist 0.13mm precipitation Broken Clouds 1400ft
Broken Clouds 3200ft
1017 - KSAN 251651Z 25008KT 6SM RA BR BKN014 BKN032 16/13 A3005 RMK AO2 RAB27 SLP175 P0000 T01610133 $
MVFR 15.6°C / 12.2°C 240º 6kt >10km - Few Clouds 900ft
Broken Clouds 1400ft
1017 - KSAN 251551Z 24006KT 10SM FEW009 BKN014 16/12 A3004 RMK AO2 SLP173 T01560122 $
MVFR 14.4°C / 12.8°C 270º 4kt >10km 0.25mm precipitation Few Clouds 900ft
Broken Clouds 1400ft
1016 - KSAN 251451Z 27004KT 10SM FEW009 BKN014 14/13 A3003 RMK AO2 RAB1352E11 SLP168 P0001 60003 T01440128 51017 $
MVFR 14.4°C / 12.8°C 260º 7kt 4800m Mist 0.51mm precipitation Few Clouds 800ft
Broken Clouds 1400ft
Overcast 2500ft
1016 - KSAN 251351Z 26007KT 3SM BR FEW008 BKN014 OVC025 14/13 A3002 RMK AO2 RAE49 SLP164 P0002 T01440128 $
MVFR 14.4°C / 12.8°C 300º 4kt 4800m Light Rain Mist 0.25mm precipitation Few Clouds 800ft
Broken Clouds 1400ft
Overcast 2500ft
- KSAN 251259Z 30004KT 3SM -RA BR FEW008 BKN014 OVC025 14/13 A3000 RMK AO2 P0001 T01440128 $
MVFR 15.6°C / 11.1°C 230º 5kt >10km - Broken Clouds 2500ft - KSAN 251211Z 23005KT 10SM BKN025 16/11 A2998 RMK AO2 T01560111 $
VFR 15.6°C / 10.6°C 260º 6kt >10km - Scattered Clouds 3200ft 1015 - KSAN 251151Z 26006KT 10SM SCT032 16/11 A2998 RMK AO2 SLP152 T01560106 10167 20156 53001 $
VFR 16.1°C / 10.6°C 270º 10kt >10km - Scattered Clouds 1800ft
Broken Clouds 3100ft
- KSAN 251058Z 27010KT 10SM SCT018 BKN031 16/11 A2998 RMK AO2 T01610106 $

MVFR

16.1°C / 11.1°C

[Daha fazla]
Rüzgar variable 0kt
Görünürlük >10km
Hava -
Bulutlar Overcast 1900ft
Basınç 1016
Değiştir -
Ham KSAN 260751Z 00000KT 10SM OVC019 16/11 A3003 RMK AO2 SLP167 T01610111 401830139 $

MVFR

15.6°C / 11.1°C

[Daha fazla]
Rüzgar variable 0kt
Görünürlük >10km
Hava -
Bulutlar Overcast 2000ft
Basınç 1017
Değiştir -
Ham KSAN 260651Z 00000KT 10SM OVC020 16/11 A3003 RMK AO2 SLP170 T01560111 $

MVFR

15.6°C / 11.1°C

[Daha fazla]
Rüzgar 350º 3kt
Görünürlük >10km
Hava -
Bulutlar Overcast 2000ft
Basınç 1017
Değiştir -
Ham KSAN 260551Z 35003KT 10SM OVC020 16/11 A3004 RMK AO2 SLP172 T01560111 10172 20156 51008 $

MVFR

15.6°C / 10.6°C

[Daha fazla]
Rüzgar variable 0kt
Görünürlük >10km
Hava -
Bulutlar Overcast 2000ft
Basınç 1017
Değiştir -
Ham KSAN 260451Z 00000KT 10SM OVC020 16/11 A3004 RMK AO2 SLP171 T01560106 $

MVFR

15.6°C / 10.6°C

[Daha fazla]
Rüzgar 340º 4kt
Görünürlük >10km
Hava -
Bulutlar Overcast 2000ft
Basınç 1016
Değiştir -
Ham KSAN 260351Z 34004KT 10SM OVC020 16/11 A3002 RMK AO2 SLP166 T01560106 $

MVFR

16.1°C / 11.1°C

[Daha fazla]
Rüzgar variable 0kt
Görünürlük >10km
Hava -
Bulutlar Overcast 2000ft
Basınç 1016
Değiştir -
Ham KSAN 260251Z 00000KT 10SM OVC020 16/11 A3002 RMK AO2 SLP164 T01610111 55002 $

MVFR

16.7°C / 11.1°C

[Daha fazla]
Rüzgar 280º 7kt
Görünürlük >10km
Hava -
Bulutlar Overcast 2000ft
Basınç 1016
Değiştir -
Ham KSAN 260151Z 28007KT 10SM OVC020 17/11 A3001 RMK AO2 SLP163 T01670111 $

MVFR

16.7°C / 11.1°C

[Daha fazla]
Rüzgar 310º 3kt
Görünürlük >10km
Hava -
Bulutlar Broken Clouds 1900ft
Overcast 3100ft
Basınç 1016
Değiştir -
Ham KSAN 260051Z 31003KT 10SM BKN019 OVC031 17/11 A3001 RMK AO2 SLP163 T01670111 $

MVFR

16.7°C / 11.1°C

[Daha fazla]
Rüzgar 280º 8kt
Görünürlük >10km
Hava -
Bulutlar Broken Clouds 2100ft
Overcast 3000ft
Basınç 1016
Değiştir -
Ham KSAN 252351Z 28008KT 10SM BKN021 OVC030 17/11 A3002 RMK AO2 SLP166 T01670111 10183 20167 56010 $

MVFR

17.8°C / 11.1°C

[Daha fazla]
Rüzgar 250º variable 210º to 300º 8kt
Görünürlük >10km
Hava -
Bulutlar Broken Clouds 1900ft
Overcast 3100ft
Basınç 1016
Değiştir -
Ham KSAN 252251Z 25008KT 210V300 10SM BKN019 OVC031 18/11 A3003 RMK AO2 SLP169 T01780111 $

MVFR

17.2°C / 11.1°C

[Daha fazla]
Rüzgar 300º 7kt
Görünürlük >10km
Hava -
Bulutlar Broken Clouds 1900ft
Overcast 3100ft
Basınç
Değiştir -
Ham KSAN 252228Z 30007KT 10SM BKN019 OVC031 17/11 A3004 RMK AO2 T01720111 $

MVFR

17.8°C / 11.7°C

[Daha fazla]
Rüzgar 270º 10kt
Görünürlük >10km
Hava -
Bulutlar Scattered Clouds 2300ft
Overcast 3000ft
Basınç 1017
Değiştir -
Ham KSAN 252151Z 27010KT 10SM SCT023 OVC030 18/12 A3004 RMK AO2 SLP171 T01780117 $

MVFR

17.2°C / 11.7°C

[Daha fazla]
Rüzgar 260º 8kt
Görünürlük >10km
Hava -
Bulutlar Scattered Clouds 1400ft
Broken Clouds 3000ft
Basınç 1017
Değiştir -
Ham KSAN 252051Z 26008KT 10SM SCT014 BKN030 17/12 A3005 RMK AO2 SLP176 T01720117 58002 $

MVFR

17.2°C / 11.7°C

[Daha fazla]
Rüzgar 210º 9kt Gust 23kt
Görünürlük >10km
Hava -
Bulutlar Scattered Clouds 1400ft
Broken Clouds 3000ft
Basınç 1017
Değiştir -
Ham KSAN 251951Z 21009G23KT 10SM SCT014 BKN030 17/12 A3006 RMK AO2 SLP178 T01720117 $

MVFR

17.8°C / 11.7°C

[Daha fazla]
Rüzgar 270º 10kt Gust 22kt
Görünürlük >10km
Hava -
Bulutlar Broken Clouds 1400ft
Broken Clouds 3200ft
Basınç 1017
Değiştir -
Ham KSAN 251851Z 27010G22KT 10SM BKN014 BKN032 18/12 A3006 RMK AO2 SLP179 T01780117 $

MVFR

17.2°C / 11.7°C

[Daha fazla]
Rüzgar 230º variable 210º to 270º 8kt Gust 19kt
Görünürlük >10km
Hava 0.13mm precipitation
Bulutlar Broken Clouds 1400ft
Broken Clouds 3200ft
Basınç 1017
Değiştir -
Ham KSAN 251751Z 23008G19KT 210V270 10SM BKN014 BKN032 17/12 A3006 RMK AO2 RAE32 SLP177 P0000 60003 T01720117 10172 20139 51009 $

MVFR

16.1°C / 13.3°C

[Daha fazla]
Rüzgar 250º 8kt
Görünürlük 9700m
Hava Rain Mist 0.13mm precipitation
Bulutlar Broken Clouds 1400ft
Broken Clouds 3200ft
Basınç 1017
Değiştir -
Ham KSAN 251651Z 25008KT 6SM RA BR BKN014 BKN032 16/13 A3005 RMK AO2 RAB27 SLP175 P0000 T01610133 $

MVFR

15.6°C / 12.2°C

[Daha fazla]
Rüzgar 240º 6kt
Görünürlük >10km
Hava -
Bulutlar Few Clouds 900ft
Broken Clouds 1400ft
Basınç 1017
Değiştir -
Ham KSAN 251551Z 24006KT 10SM FEW009 BKN014 16/12 A3004 RMK AO2 SLP173 T01560122 $

MVFR

14.4°C / 12.8°C

[Daha fazla]
Rüzgar 270º 4kt
Görünürlük >10km
Hava 0.25mm precipitation
Bulutlar Few Clouds 900ft
Broken Clouds 1400ft
Basınç 1016
Değiştir -
Ham KSAN 251451Z 27004KT 10SM FEW009 BKN014 14/13 A3003 RMK AO2 RAB1352E11 SLP168 P0001 60003 T01440128 51017 $

MVFR

14.4°C / 12.8°C

[Daha fazla]
Rüzgar 260º 7kt
Görünürlük 4800m
Hava Mist 0.51mm precipitation
Bulutlar Few Clouds 800ft
Broken Clouds 1400ft
Overcast 2500ft
Basınç 1016
Değiştir -
Ham KSAN 251351Z 26007KT 3SM BR FEW008 BKN014 OVC025 14/13 A3002 RMK AO2 RAE49 SLP164 P0002 T01440128 $

MVFR

14.4°C / 12.8°C

[Daha fazla]
Rüzgar 300º 4kt
Görünürlük 4800m
Hava Light Rain Mist 0.25mm precipitation
Bulutlar Few Clouds 800ft
Broken Clouds 1400ft
Overcast 2500ft
Basınç
Değiştir -
Ham KSAN 251259Z 30004KT 3SM -RA BR FEW008 BKN014 OVC025 14/13 A3000 RMK AO2 P0001 T01440128 $

MVFR

15.6°C / 11.1°C

[Daha fazla]
Rüzgar 230º 5kt
Görünürlük >10km
Hava -
Bulutlar Broken Clouds 2500ft
Basınç
Değiştir -
Ham KSAN 251211Z 23005KT 10SM BKN025 16/11 A2998 RMK AO2 T01560111 $

VFR

15.6°C / 10.6°C

[Daha fazla]
Rüzgar 260º 6kt
Görünürlük >10km
Hava -
Bulutlar Scattered Clouds 3200ft
Basınç 1015
Değiştir -
Ham KSAN 251151Z 26006KT 10SM SCT032 16/11 A2998 RMK AO2 SLP152 T01560106 10167 20156 53001 $

VFR

16.1°C / 10.6°C

[Daha fazla]
Rüzgar 270º 10kt
Görünürlük >10km
Hava -
Bulutlar Scattered Clouds 1800ft
Broken Clouds 3100ft
Basınç
Değiştir -
Ham KSAN 251058Z 27010KT 10SM SCT018 BKN031 16/11 A2998 RMK AO2 T01610106 $

San Diego (KSAN) için TAF

From till


From till Wind 4kt. Visibility 9700m. Overcast 2100ft.
From till Wind 4kt. Visibility 9700m. Broken Clouds 1500ft. Overcast 2100ft.
From till Wind 260º 6kt. Visibility 9700m. Broken Clouds 2100ft.
From till Wind 270º 10kt. Visibility 9700m. Scattered Clouds 2500ft.
From till Wind 290º 6kt. Visibility 9700m. Broken Clouds 2100ft.
From till Wind 4kt. Visibility 9700m. Broken Clouds 1300ft.

Ham: KSAN 260520Z 2606/2712 VRB04KT P6SM OVC021 FM260700 VRB04KT P6SM BKN015 OVC021 FM261600 26006KT P6SM BKN021 FM261900 27010KT P6SM SCT025 FM270200 29006KT P6SM BKN021 FM270600 VRB04KT P6SM BKN013

rainNOW: Şimdi San Diego ve çevresi için yağmur yağıyor (25km yarıçap)

0.0 mm
0.0 mm
0.0 mm
0.0 mm
0.0 mm
0.0 mm
0.0 mm
0.0 mm
0.0 mm
0.0 mm
0.0 mm
0.0 mm

San Diego için radar ve yağış nowcast

Çise
Hafif
Orta
Ağır
Çok ağır
Dolu

Konum işaretleyicisi San Diego üzerine yerleştirilir. Bu animasyon, seçilen zaman aralığı için yağış radarının yanı sıra 1h tahminini gösterir. Turuncu çarpılar yıldırımı göstermektedir. Veriler nowcast.de tarafından sağlanmıştır (ABD, Avrupa ve Avustralya'da erişimi mevcuttur). Çiseleyen yağmur veya hafif kar yağışı radarda görünmeyebilir. Yağış yoğunluğu turkuazdan kırmızıya kadar değişen renklerle kodlanmıştır.

San Diego için şu anki uydu görüntüleri, ABD

Konum işaretleyici San Diego üzerine yerleştirilir. [Daha fazla]

Gerçek zamanlı uydu görüntüsü gündüz süresince görülür ışığı gece süresince kızılötesi ışınım ile birleştirir. Gece kızılötesi ışınım sıcaklık farklarını algılayabildiğinden dolayı görüntü karanlık değildir. Ancak düşük bulutları ve sisi yer sıcaklığından ayırmak zordur ve bu nedenle gece boyunca neredeyse görünmez olabilirler. Avrupa için Meteosat uydu görüntüleri gerçek zamanlı olarak her 5 dakikada bir güncellenir. GOES-16/GOES-17 (Kuzey ve Güney Amerika) ve Himawari (Asya) görüntüleri her 10 dakikada bir güncellenir.

Yağış radar ve uydulardan tahmin edilir. Uydulardan elde edilen yağış tahminleri geceleri gündüze göre daha az doğrudur.

© 2024 meteoblue, NOAA Satellites GOES-16 and EUMETSAT. nowcast tarafından sağlanan şimşek verileri.

En başa git
×
Merhaba,
bir reklam engelleyici kullanıyormuşsunuz gibi görünüyor.

Reklam, ücretsiz web sitemizi benzersiz ayrıntı ve doğrulukla sürdürmek için çok önemlidir.

Lütfen reklam engelleyicinizde www.meteoblue.com beyaz listesini beyaz listeye alın veya ürünlerimizden birini satın almayı düşünün:

Zaten bir aboneliğiniz var mı?
O halde lütfen giriş yapın.